createdAt,value
2023-01-19T00:01:28.194Z,412.23
2023-01-19T00:03:56.354Z,408.73
2023-01-19T00:06:27.053Z,426.20
2023-01-19T00:08:55.193Z,418.45
2023-01-19T00:11:23.793Z,417.13
2023-01-19T00:13:53.526Z,423.77
2023-01-19T00:16:23.892Z,421.80
2023-01-19T00:18:53.846Z,436.70
2023-01-19T00:21:22.641Z,416.15
2023-01-19T00:23:52.762Z,419.40
2023-01-19T00:26:22.695Z,429.42
2023-01-19T00:28:51.021Z,416.02
2023-01-19T00:31:21.633Z,420.27
2023-01-19T00:33:52.832Z,392.52
2023-01-19T00:36:22.291Z,403.58
2023-01-19T00:38:50.443Z,404.20
2023-01-19T00:41:19.462Z,411.02
2023-01-19T00:43:46.568Z,432.55
2023-01-19T00:46:17.407Z,436.80
2023-01-19T00:48:45.508Z,441.50
2023-01-19T00:51:16.156Z,462.67
2023-01-19T00:53:44.238Z,456.70
2023-01-19T00:56:12.350Z,457.38
2023-01-19T00:58:40.465Z,466.92
2023-01-19T01:01:08.656Z,489.23
2023-01-19T01:03:38.523Z,476.50
2023-01-19T01:06:08.371Z,480.00
2023-01-19T01:08:39.404Z,489.08
2023-01-19T01:11:08.777Z,502.10
2023-01-19T01:13:38.143Z,456.60
2023-01-19T01:16:09.192Z,442.50
2023-01-19T01:21:08.284Z,440.92
2023-01-19T01:23:39.161Z,447.85
2023-01-19T01:26:08.557Z,442.95
2023-01-19T01:28:38.223Z,435.25
2023-01-19T01:31:06.769Z,437.23
2023-01-19T01:33:39.797Z,439.33
2023-01-19T01:36:12.095Z,434.88
2023-01-19T01:38:43.408Z,433.05
2023-01-19T01:41:14.203Z,436.13
2023-01-19T01:43:50.445Z,430.70
2023-01-19T01:46:20.027Z,429.95
2023-01-19T01:48:56.027Z,432.98
2023-01-19T01:51:31.751Z,446.52
2023-01-19T01:54:16.634Z,439.70
2023-01-19T01:56:51.202Z,431.15
2023-01-19T01:59:26.713Z,448.60
2023-01-19T02:02:15.673Z,437.67
2023-01-19T02:04:51.714Z,440.35
2023-01-19T02:07:48.491Z,444.20
2023-01-19T02:10:36.438Z,453.08
2023-01-19T02:13:20.915Z,459.60
2023-01-19T02:15:52.867Z,454.73
2023-01-19T02:18:24.043Z,454.65
2023-01-19T02:21:04.662Z,450.70
2023-01-19T02:23:41.745Z,450.27
2023-01-19T02:26:17.534Z,450.98
2023-01-19T02:28:51.421Z,447.88
2023-01-19T02:31:20.426Z,443.88
2023-01-19T02:33:48.549Z,426.50
2023-01-19T02:36:21.902Z,382.58
2023-01-19T02:41:28.775Z,406.58
2023-01-19T02:43:59.028Z,424.88
2023-01-19T02:46:28.449Z,438.58
2023-01-19T02:49:00.486Z,378.02
2023-01-19T02:51:31.199Z,396.95
2023-01-19T02:54:22.820Z,410.08
2023-01-19T02:57:14.358Z,429.50
2023-01-19T02:59:56.147Z,428.05
2023-01-19T03:02:38.207Z,426.33
2023-01-19T03:05:34.822Z,434.08
2023-01-19T03:08:16.094Z,402.45
2023-01-19T03:10:54.451Z,394.70
2023-01-19T03:13:32.102Z,420.98
2023-01-19T03:16:11.608Z,414.10
2023-01-19T03:18:42.999Z,421.25
2023-01-19T03:21:14.332Z,392.30
2023-01-19T03:23:47.074Z,401.47
2023-01-19T03:26:22.883Z,384.25
2023-01-19T03:28:54.466Z,366.40
2023-01-19T03:31:27.198Z,374.15
2023-01-19T03:34:02.867Z,366.10
2023-01-19T03:36:38.202Z,385.25
2023-01-19T03:39:10.962Z,382.77
2023-01-19T03:41:45.302Z,392.80
2023-01-19T03:44:14.988Z,360.92
2023-01-19T03:46:44.768Z,398.90
2023-01-19T03:49:14.105Z,384.67
2023-01-19T03:51:44.949Z,353.65
2023-01-19T03:54:14.246Z,411.77
2023-01-19T03:56:46.098Z,414.10
2023-01-19T03:59:17.493Z,425.25
2023-01-19T04:01:45.762Z,421.08
2023-01-19T04:04:15.461Z,400.17
2023-01-19T04:06:44.056Z,428.80
2023-01-19T04:09:13.408Z,431.40
2023-01-19T04:11:41.657Z,416.33
2023-01-19T04:14:11.087Z,349.65
2023-01-19T04:16:40.414Z,308.80
2023-01-19T04:19:08.551Z,304.02
2023-01-19T04:21:37.811Z,300.15
2023-01-19T04:24:07.789Z,307.25
2023-01-19T04:26:36.246Z,313.13
2023-01-19T04:29:05.673Z,336.73
2023-01-19T04:31:35.831Z,376.67
2023-01-19T04:34:06.622Z,411.40
2023-01-19T04:36:34.854Z,381.73
2023-01-19T04:39:04.318Z,410.25
2023-01-19T04:41:32.571Z,406.45
2023-01-19T04:44:01.058Z,395.52
2023-01-19T04:46:30.566Z,399.42
2023-01-19T04:49:01.441Z,401.42
2023-01-19T04:51:30.694Z,411.80
2023-01-19T04:54:00.147Z,409.90
2023-01-19T04:56:28.948Z,405.40
2023-01-19T04:58:59.556Z,406.80
2023-01-19T05:01:29.619Z,404.27
2023-01-19T05:04:03.264Z,410.08
2023-01-19T05:06:31.940Z,408.98
2023-01-19T05:09:01.245Z,416.77
2023-01-19T05:11:30.859Z,415.95
2023-01-19T05:14:01.581Z,416.77
2023-01-19T05:16:31.535Z,413.70
2023-01-19T05:19:02.631Z,392.20
2023-01-19T05:21:32.549Z,400.50
2023-01-19T05:24:01.875Z,395.48
2023-01-19T05:26:31.145Z,395.38
2023-01-19T05:29:00.489Z,399.58
2023-01-19T05:31:29.039Z,393.95
2023-01-19T05:33:58.436Z,404.75
2023-01-19T05:36:29.281Z,390.75
2023-01-19T05:38:59.615Z,426.60
2023-01-19T05:41:29.286Z,413.40
2023-01-19T05:43:58.884Z,424.73
2023-01-19T05:46:27.140Z,404.25
2023-01-19T05:48:56.431Z,408.48
2023-01-19T05:51:25.786Z,404.33
2023-01-19T05:53:57.644Z,403.92
2023-01-19T05:56:26.061Z,381.73
2023-01-19T05:58:55.529Z,375.13
2023-01-19T06:01:23.794Z,364.83
2023-01-19T06:03:53.201Z,330.55
2023-01-19T06:06:22.712Z,333.02
2023-01-19T06:08:50.936Z,339.67
2023-01-19T06:11:22.551Z,341.55
2023-01-19T06:13:51.834Z,343.50
2023-01-19T06:16:20.071Z,332.05
2023-01-19T06:18:49.437Z,353.15
2023-01-19T06:21:18.960Z,345.25
2023-01-19T06:23:48.331Z,332.60
2023-01-19T06:26:16.379Z,326.65
2023-01-19T06:28:47.719Z,324.40
2023-01-19T06:31:17.184Z,323.15
2023-01-19T06:33:46.869Z,317.50
2023-01-19T06:36:15.368Z,321.70
2023-01-19T06:38:44.099Z,328.10
2023-01-19T06:41:12.249Z,330.50
2023-01-19T06:43:42.373Z,328.13
2023-01-19T06:46:13.543Z,347.43
2023-01-19T06:48:43.195Z,344.75
2023-01-19T06:51:13.089Z,347.05
2023-01-19T06:53:42.764Z,352.42
2023-01-19T06:56:12.465Z,335.85
2023-01-19T06:58:43.397Z,346.55
2023-01-19T07:01:12.951Z,332.83
2023-01-19T07:03:41.297Z,325.90
2023-01-19T07:06:11.743Z,325.00
2023-01-19T07:08:42.427Z,333.02
2023-01-19T07:11:26.319Z,335.65
2023-01-19T07:14:04.613Z,346.35
2023-01-19T07:16:36.545Z,357.30
2023-01-19T07:19:05.989Z,350.83
2023-01-19T07:21:35.276Z,341.10
2023-01-19T07:24:06.384Z,338.08
2023-01-19T07:26:35.682Z,355.90
2023-01-19T07:29:05.444Z,351.88
2023-01-19T07:31:36.751Z,340.10
2023-01-19T07:34:06.960Z,345.75
2023-01-19T07:36:36.932Z,332.70
2023-01-19T07:39:07.816Z,329.70
2023-01-19T07:41:37.473Z,333.65
2023-01-19T07:44:08.665Z,344.95
2023-01-19T07:46:38.330Z,366.13
2023-01-19T07:49:09.022Z,349.40
2023-01-19T07:51:37.520Z,337.20
2023-01-19T07:54:09.729Z,335.00
2023-01-19T07:56:39.142Z,340.40
2023-01-19T07:59:10.838Z,327.13
2023-01-19T08:01:42.083Z,320.60
2023-01-19T08:04:12.836Z,316.00
2023-01-19T08:06:41.816Z,329.38
2023-01-19T08:09:11.715Z,315.67
2023-01-19T08:11:40.321Z,318.05
2023-01-19T08:14:10.080Z,322.23
2023-01-19T08:16:38.260Z,323.17
2023-01-19T08:19:10.205Z,310.63
2023-01-19T08:21:38.896Z,314.67
2023-01-19T08:24:08.207Z,327.70
2023-01-19T08:26:37.787Z,324.30
2023-01-19T08:29:07.272Z,324.02
2023-01-19T08:31:37.790Z,318.35
2023-01-19T08:34:06.861Z,317.45
2023-01-19T08:36:37.525Z,319.85
2023-01-19T08:39:05.680Z,320.30
2023-01-19T08:41:35.024Z,317.83
2023-01-19T08:44:06.104Z,322.10
2023-01-19T08:46:35.016Z,330.38
2023-01-19T08:49:04.724Z,361.00
2023-01-19T08:51:33.074Z,362.23
2023-01-19T08:54:03.956Z,360.98
2023-01-19T08:56:33.237Z,351.20
2023-01-19T08:59:09.858Z,350.95
2023-01-19T09:01:41.349Z,344.88
2023-01-19T09:04:11.249Z,358.70
2023-01-19T09:06:40.540Z,353.23
2023-01-19T09:09:11.260Z,362.98
2023-01-19T09:11:40.919Z,357.00
2023-01-19T09:14:10.706Z,353.08
2023-01-19T09:16:38.859Z,359.42
2023-01-19T09:19:09.762Z,359.27
2023-01-19T09:24:09.272Z,357.33
2023-01-19T09:26:40.523Z,366.67
2023-01-19T09:29:10.646Z,362.83
2023-01-19T09:31:40.167Z,364.05
2023-01-19T09:34:08.975Z,373.90
2023-01-19T09:36:39.630Z,372.25
2023-01-19T09:39:11.340Z,388.00
2023-01-19T09:41:45.426Z,370.35
2023-01-19T09:44:21.040Z,378.55
2023-01-19T09:46:49.446Z,370.98
2023-01-19T09:49:22.585Z,370.38
2023-01-19T09:51:52.399Z,364.95
2023-01-19T09:54:27.947Z,372.90
2023-01-19T09:56:56.192Z,374.27
2023-01-19T09:59:27.168Z,380.27
2023-01-19T10:04:42.353Z,390.48
2023-01-19T10:07:24.702Z,391.98
2023-01-19T10:12:40.229Z,390.60
2023-01-19T10:15:23.464Z,386.02
2023-01-19T10:18:09.118Z,373.15
2023-01-19T10:20:43.165Z,374.05
2023-01-19T10:23:37.749Z,370.35
2023-01-19T10:26:15.428Z,376.85
2023-01-19T10:28:45.750Z,374.77
2023-01-19T10:31:14.727Z,379.85
2023-01-19T10:33:46.091Z,387.55
2023-01-19T10:36:20.155Z,389.10
2023-01-19T10:38:52.508Z,374.83
2023-01-19T10:41:30.268Z,391.52
2023-01-19T10:44:04.179Z,385.23
2023-01-19T10:46:39.709Z,384.05
2023-01-19T10:49:21.384Z,395.90
2023-01-19T10:51:50.965Z,386.42
2023-01-19T10:54:23.316Z,401.50
2023-01-19T10:56:58.021Z,399.33
2023-01-19T10:59:37.340Z,423.20
2023-01-19T11:02:21.027Z,393.70
2023-01-19T11:04:55.053Z,385.88
2023-01-19T11:07:28.511Z,380.15
2023-01-19T11:10:24.112Z,384.80
2023-01-19T11:13:15.804Z,371.77
2023-01-19T11:15:46.074Z,354.40
2023-01-19T11:18:28.182Z,357.05
2023-01-19T11:21:01.100Z,355.48
2023-01-19T11:23:33.577Z,380.02
2023-01-19T11:26:06.367Z,390.45
2023-01-19T11:28:38.372Z,395.48
2023-01-19T11:31:22.181Z,390.27
2023-01-19T11:33:54.121Z,382.25
2023-01-19T11:36:25.392Z,365.20
2023-01-19T11:38:56.290Z,355.57
2023-01-19T11:41:29.890Z,355.77
2023-01-19T11:44:17.256Z,384.95
2023-01-19T11:46:51.948Z,374.60
2023-01-19T11:49:28.433Z,388.33
2023-01-19T11:52:05.398Z,386.23
2023-01-19T11:54:38.931Z,373.00
2023-01-19T11:57:16.015Z,380.70
2023-01-19T11:59:47.256Z,394.65
2023-01-19T12:02:26.670Z,367.17
2023-01-19T12:05:03.835Z,362.63
2023-01-19T12:07:37.585Z,366.30
2023-01-19T12:10:24.874Z,360.70
2023-01-19T12:12:54.503Z,368.88
2023-01-19T12:15:34.321Z,360.45
2023-01-19T12:18:06.369Z,345.90
2023-01-19T12:20:40.011Z,362.30
2023-01-19T12:23:24.007Z,366.90
2023-01-19T12:26:10.135Z,373.80
2023-01-19T12:28:44.666Z,346.23
2023-01-19T12:31:18.777Z,359.80
2023-01-19T12:33:47.327Z,348.08
2023-01-19T12:36:39.548Z,342.02
2023-01-19T12:39:22.152Z,344.63
2023-01-19T12:42:07.785Z,373.88
2023-01-19T12:44:38.646Z,377.52
2023-01-19T12:47:24.426Z,352.88
2023-01-19T12:49:58.715Z,347.65
2023-01-19T12:52:34.144Z,376.55
2023-01-19T12:55:07.895Z,375.35
2023-01-19T12:57:40.969Z,377.52
2023-01-19T13:00:37.748Z,376.85
2023-01-19T13:04:06.744Z,379.17
2023-01-19T13:07:11.465Z,399.17
2023-01-19T13:09:43.738Z,404.75
2023-01-19T13:12:23.031Z,398.17
2023-01-19T13:15:20.343Z,364.95
2023-01-19T13:17:52.001Z,359.58
2023-01-19T13:20:30.684Z,392.02
2023-01-19T13:23:21.899Z,368.73
2023-01-19T13:26:06.292Z,403.55
2023-01-19T13:28:42.164Z,384.63
2023-01-19T13:31:13.984Z,413.50
2023-01-19T13:33:53.573Z,397.33
2023-01-19T13:36:30.791Z,386.55
2023-01-19T13:39:01.444Z,370.25
2023-01-19T13:41:35.184Z,369.63
2023-01-19T13:44:11.115Z,393.73
2023-01-19T13:46:42.100Z,376.17
2023-01-19T13:49:20.073Z,397.60
2023-01-19T13:52:15.197Z,370.60
2023-01-19T13:54:53.162Z,361.48
2023-01-19T13:57:26.487Z,346.33
2023-01-19T14:00:21.388Z,343.00
2023-01-19T14:02:58.853Z,349.08
2023-01-19T14:05:31.235Z,372.50
2023-01-19T14:08:13.049Z,365.90
2023-01-19T14:10:44.512Z,328.27
2023-01-19T14:13:19.555Z,321.38
2023-01-19T14:15:51.814Z,353.20
2023-01-19T14:18:27.580Z,305.67
2023-01-19T14:21:01.263Z,277.83
2023-01-19T14:23:48.923Z,251.05
2023-01-19T14:26:47.800Z,228.27
2023-01-19T14:29:27.941Z,212.90
2023-01-19T14:32:19.385Z,211.02
2023-01-19T14:34:51.325Z,236.73
2023-01-19T14:37:24.100Z,242.40
2023-01-19T14:40:01.077Z,248.82
2023-01-19T14:42:32.806Z,248.93
2023-01-19T14:45:06.173Z,244.45
2023-01-19T14:47:39.926Z,265.30
2023-01-19T14:50:24.690Z,282.65
2023-01-19T14:52:57.666Z,289.58
2023-01-19T14:55:36.185Z,276.25
2023-01-19T14:58:11.268Z,241.20
2023-01-19T15:00:41.121Z,241.93
2023-01-19T15:03:10.905Z,235.30
2023-01-19T15:05:40.022Z,259.55
2023-01-19T15:08:13.403Z,229.70
2023-01-19T15:10:44.939Z,238.20
2023-01-19T15:13:20.443Z,244.40
2023-01-19T15:15:51.955Z,241.15
2023-01-19T15:18:25.000Z,252.15
2023-01-19T15:20:56.361Z,289.55
2023-01-19T15:23:25.693Z,297.30
2023-01-19T15:26:01.340Z,311.52
2023-01-19T15:28:31.841Z,315.98
2023-01-19T15:31:02.353Z,316.98
2023-01-19T15:33:31.993Z,320.40
2023-01-19T15:36:01.434Z,329.95
2023-01-19T15:38:30.869Z,349.75
2023-01-19T15:41:01.562Z,355.27
2023-01-19T15:43:30.853Z,349.48
2023-01-19T15:46:03.897Z,351.30
2023-01-19T15:48:32.035Z,343.00
2023-01-19T15:51:18.230Z,343.15
2023-01-19T15:53:47.082Z,343.20
2023-01-19T15:56:19.395Z,343.02
2023-01-19T15:58:47.843Z,341.00
2023-01-19T16:01:19.126Z,339.83
2023-01-19T16:03:49.356Z,341.98
2023-01-19T16:06:19.729Z,373.13
2023-01-19T16:08:47.816Z,385.67
2023-01-19T16:11:19.862Z,402.70
2023-01-19T16:13:48.527Z,387.85
2023-01-19T16:16:19.345Z,391.73
2023-01-19T16:18:47.877Z,394.65
2023-01-19T16:21:17.902Z,376.55
2023-01-19T16:23:46.739Z,403.75
2023-01-19T16:26:31.852Z,386.90
2023-01-19T16:29:07.741Z,363.13
2023-01-19T16:31:37.833Z,375.83
2023-01-19T16:34:07.642Z,388.13
2023-01-19T16:36:39.729Z,383.15
2023-01-19T16:39:10.451Z,386.55
2023-01-19T16:41:42.201Z,381.20
2023-01-19T16:44:13.006Z,384.98
2023-01-19T16:46:43.553Z,373.92
2023-01-19T16:49:16.360Z,367.48
2023-01-19T16:51:47.536Z,375.15
2023-01-19T16:54:19.479Z,357.43
2023-01-19T16:56:50.211Z,354.42
2023-01-19T16:59:19.679Z,346.48
2023-01-19T17:01:50.450Z,334.23
2023-01-19T17:06:51.736Z,323.83
2023-01-19T17:09:21.500Z,349.17
2023-01-19T17:11:52.184Z,337.77
2023-01-19T17:14:22.553Z,363.20
2023-01-19T17:16:53.238Z,387.90
2023-01-19T17:19:23.023Z,375.15
2023-01-19T17:21:52.708Z,378.10
2023-01-19T17:24:22.003Z,382.83
2023-01-19T17:26:52.670Z,408.35
2023-01-19T17:29:20.739Z,446.33
2023-01-19T17:31:51.690Z,463.55
2023-01-19T17:36:51.682Z,435.65
2023-01-19T17:39:19.776Z,435.10
2023-01-19T17:41:50.229Z,406.73
2023-01-19T17:44:20.129Z,405.90
2023-01-19T17:46:49.754Z,409.33
2023-01-19T17:49:19.451Z,406.05
2023-01-19T17:51:55.604Z,403.95
2023-01-19T17:54:24.928Z,404.10
2023-01-19T17:56:56.130Z,396.90
2023-01-19T17:59:27.132Z,397.47
2023-01-19T18:01:56.457Z,394.90
2023-01-19T18:04:25.780Z,386.35
2023-01-19T18:06:56.368Z,383.80
2023-01-19T18:09:26.029Z,397.85
2023-01-19T18:11:55.656Z,412.27
2023-01-19T18:14:26.684Z,409.70
2023-01-19T18:16:56.295Z,424.02
2023-01-19T18:19:25.857Z,420.92
2023-01-19T18:21:55.142Z,430.35
2023-01-19T18:24:23.234Z,426.75
2023-01-19T18:26:55.721Z,421.48
2023-01-19T18:29:24.104Z,437.67
2023-01-19T18:31:56.077Z,446.50
2023-01-19T18:34:24.545Z,449.20
2023-01-19T18:36:53.903Z,447.48
2023-01-19T18:39:22.115Z,453.20
2023-01-19T18:41:51.461Z,440.80
2023-01-19T18:44:20.143Z,447.35
2023-01-19T18:46:51.258Z,434.25
2023-01-19T18:49:21.871Z,423.15
2023-01-19T18:51:49.959Z,432.95
2023-01-19T18:54:19.934Z,470.35
2023-01-19T18:56:52.768Z,447.73
2023-01-19T18:59:22.177Z,473.83
2023-01-19T19:01:51.605Z,464.55
2023-01-19T19:04:22.390Z,457.52
2023-01-19T19:06:51.656Z,452.65
2023-01-19T19:09:21.371Z,449.13
2023-01-19T19:11:50.623Z,454.08
2023-01-19T19:14:19.240Z,470.23
2023-01-19T19:16:49.321Z,419.60
2023-01-19T19:19:19.051Z,438.57
2023-01-19T19:21:49.032Z,425.92
2023-01-19T19:24:17.130Z,315.90
2023-01-19T19:26:48.049Z,319.98
2023-01-19T19:29:17.399Z,328.00
2023-01-19T19:31:48.102Z,338.67
2023-01-19T19:34:16.226Z,356.42
2023-01-19T19:36:45.644Z,356.75
2023-01-19T19:39:16.363Z,360.58
2023-01-19T19:41:46.027Z,372.10
2023-01-19T19:44:15.315Z,362.55
2023-01-19T19:46:44.777Z,353.75
2023-01-19T19:49:12.888Z,321.20
2023-01-19T19:51:42.185Z,308.10
2023-01-19T19:54:11.512Z,298.38
2023-01-19T19:56:43.335Z,298.50
2023-01-19T19:59:11.622Z,303.17
2023-01-19T20:01:43.584Z,301.52
2023-01-19T20:04:14.678Z,374.38
2023-01-19T20:06:45.926Z,353.98
2023-01-19T20:09:16.866Z,388.30
2023-01-19T20:11:50.319Z,397.08
2023-01-19T20:14:20.185Z,409.52
2023-01-19T20:16:50.083Z,419.00
2023-01-19T20:19:18.890Z,389.50
2023-01-19T20:21:47.101Z,413.50
2023-01-19T20:24:18.519Z,404.48
2023-01-19T20:26:52.280Z,380.27
2023-01-19T20:29:22.084Z,402.70
2023-01-19T20:31:54.612Z,399.67
2023-01-19T20:34:26.528Z,305.60
2023-01-19T20:36:56.759Z,335.80
2023-01-19T20:39:26.013Z,306.75
2023-01-19T20:41:56.689Z,303.40
2023-01-19T20:44:27.091Z,307.77
2023-01-19T20:46:57.482Z,309.65
2023-01-19T20:49:26.738Z,295.70
2023-01-19T20:51:56.142Z,309.27
2023-01-19T20:54:28.237Z,317.42
2023-01-19T20:57:00.948Z,329.10
2023-01-19T20:59:29.179Z,393.27
2023-01-19T21:01:58.547Z,381.40
2023-01-19T21:04:28.333Z,366.45
2023-01-19T21:06:58.838Z,340.85
2023-01-19T21:09:28.117Z,330.08
2023-01-19T21:11:59.930Z,356.45
2023-01-19T21:14:29.667Z,329.92
2023-01-19T21:16:59.760Z,316.23
2023-01-19T21:19:29.249Z,345.40
2023-01-19T21:21:59.770Z,319.38
2023-01-19T21:24:29.213Z,361.90
2023-01-19T21:26:59.888Z,361.88
2023-01-19T21:29:28.004Z,412.25
2023-01-19T21:31:57.878Z,373.15
2023-01-19T21:34:27.264Z,302.25
2023-01-19T21:36:55.370Z,321.35
2023-01-19T21:39:25.302Z,374.25
2023-01-19T21:41:54.656Z,427.77
2023-01-19T21:44:26.454Z,396.75
2023-01-19T21:46:55.790Z,418.45
2023-01-19T21:49:26.360Z,416.50
2023-01-19T21:51:55.589Z,387.83
2023-01-19T21:54:27.800Z,406.23
2023-01-19T21:59:28.159Z,407.67
2023-01-19T22:01:56.518Z,407.98
2023-01-19T22:04:25.923Z,403.55
2023-01-19T22:06:54.002Z,397.48
2023-01-19T22:09:24.793Z,404.58
2023-01-19T22:11:54.125Z,407.05
2023-01-19T22:14:23.450Z,410.17
2023-01-19T22:16:53.408Z,426.65
2023-01-19T22:19:24.313Z,406.45
2023-01-19T22:21:53.567Z,415.10
2023-01-19T22:24:24.109Z,415.38
2023-01-19T22:26:53.388Z,390.92
2023-01-19T22:29:23.928Z,299.80
2023-01-19T22:31:55.029Z,314.83
2023-01-19T22:34:25.931Z,302.38
2023-01-19T22:36:54.048Z,348.63
2023-01-19T22:39:24.880Z,365.88
2023-01-19T22:41:54.282Z,304.15
2023-01-19T22:44:25.194Z,318.27
2023-01-19T22:46:58.099Z,374.10
2023-01-19T22:49:27.405Z,341.58
2023-01-19T22:51:55.849Z,355.60
2023-01-19T22:54:26.306Z,373.95
2023-01-19T22:56:55.978Z,372.80
2023-01-19T22:59:25.654Z,351.45
2023-01-19T23:01:56.400Z,331.27
2023-01-19T23:04:26.941Z,339.48
2023-01-19T23:06:56.177Z,350.50
2023-01-19T23:09:26.646Z,344.20
2023-01-19T23:11:55.083Z,343.38
2023-01-19T23:14:24.886Z,343.05
2023-01-19T23:16:54.157Z,312.95
2023-01-19T23:19:26.007Z,289.85
2023-01-19T23:21:54.556Z,341.17
2023-01-19T23:24:25.445Z,323.42
2023-01-19T23:26:54.726Z,328.25
2023-01-19T23:29:25.456Z,332.77
2023-01-19T23:31:55.981Z,310.45
2023-01-19T23:34:28.223Z,312.67
2023-01-19T23:39:27.813Z,296.20
2023-01-19T23:41:57.076Z,309.05
2023-01-19T23:44:25.203Z,291.65
2023-01-19T23:46:54.440Z,305.30
2023-01-19T23:49:24.953Z,334.73
2023-01-19T23:51:55.614Z,337.15
2023-01-19T23:54:26.510Z,331.42
2023-01-19T23:56:55.775Z,361.83
2023-01-19T23:59:25.107Z,358.10
